createdAt,value
2023-01-05T00:02:50.505Z,0.20
2023-01-05T00:06:52.597Z,0.13
2023-01-05T00:11:13.256Z,0.30
2023-01-05T00:15:33.742Z,0.20
2023-01-05T00:19:54.741Z,0.20
2023-01-05T00:23:56.781Z,0.20
2023-01-05T00:27:58.981Z,0.10
2023-01-05T00:32:01.077Z,0.10
2023-01-05T00:36:09.244Z,0.20
2023-01-05T00:40:15.055Z,0.20
2023-01-05T00:44:17.057Z,0.20
2023-01-05T00:48:19.032Z,0.30
2023-01-05T00:52:21.041Z,0.20
2023-01-05T00:56:24.047Z,0.30
2023-01-05T01:00:26.132Z,0.35
2023-01-05T01:04:30.030Z,0.30
2023-01-05T01:08:32.293Z,0.20
2023-01-05T01:12:34.322Z,0.40
2023-01-05T01:16:36.330Z,0.32
2023-01-05T01:20:39.628Z,0.30
2023-01-05T01:24:41.812Z,0.40
2023-01-05T01:28:47.466Z,0.90
2023-01-05T01:32:49.488Z,0.40
2023-01-05T01:36:51.678Z,0.50
2023-01-05T01:40:58.106Z,0.35
2023-01-05T01:45:05.798Z,0.40
2023-01-05T01:49:11.470Z,0.50
2023-01-05T01:53:20.762Z,0.60
2023-01-05T01:57:25.448Z,0.50
2023-01-05T02:01:27.944Z,0.73
2023-01-05T02:05:33.481Z,0.73
2023-01-05T02:09:35.536Z,0.60
2023-01-05T02:13:51.084Z,0.75
2023-01-05T02:18:22.556Z,1.10
2023-01-05T02:22:45.942Z,1.00
2023-01-05T02:27:18.014Z,1.05
2023-01-05T02:31:34.305Z,0.82
2023-01-05T02:35:52.754Z,1.10
2023-01-05T02:40:21.463Z,1.33
2023-01-05T02:44:29.291Z,1.23
2023-01-05T02:48:32.703Z,1.75
2023-01-05T02:52:42.777Z,1.63
2023-01-05T02:56:52.988Z,1.35
2023-01-05T03:00:59.028Z,1.80
2023-01-05T03:05:08.255Z,1.27
2023-01-05T03:09:10.368Z,1.35
2023-01-05T03:13:31.765Z,1.40
2023-01-05T03:17:40.789Z,1.75
2023-01-05T03:22:04.027Z,2.03
2023-01-05T03:26:31.289Z,1.90
2023-01-05T03:31:06.949Z,1.70
2023-01-05T03:35:31.317Z,2.20
2023-01-05T03:39:38.027Z,1.30
2023-01-05T03:47:44.307Z,1.80
2023-01-05T03:51:46.684Z,1.50
2023-01-05T03:55:48.757Z,1.50
2023-01-05T03:59:50.920Z,1.65
2023-01-05T04:03:53.392Z,1.67
2023-01-05T04:07:55.597Z,1.65
2023-01-05T04:11:57.994Z,1.55
2023-01-05T04:16:00.760Z,1.90
2023-01-05T04:20:05.915Z,1.48
2023-01-05T04:24:11.081Z,2.40
2023-01-05T04:28:15.492Z,1.70
2023-01-05T04:32:18.932Z,1.70
2023-01-05T04:36:21.285Z,1.77
2023-01-05T04:40:24.209Z,3.03
2023-01-05T04:44:29.018Z,1.75
2023-01-05T04:48:32.221Z,1.75
2023-01-05T04:52:35.189Z,1.92
2023-01-05T04:56:38.156Z,2.10
2023-01-05T05:00:41.923Z,2.88
2023-01-05T05:04:44.114Z,3.70
2023-01-05T05:08:46.494Z,3.55
2023-01-05T05:12:48.593Z,2.67
2023-01-05T05:16:50.765Z,3.40
2023-01-05T05:20:53.333Z,1.83
2023-01-05T05:24:59.969Z,1.80
2023-01-05T05:29:02.253Z,1.60
2023-01-05T05:33:04.398Z,1.40
2023-01-05T05:37:06.724Z,2.20
2023-01-05T05:41:08.794Z,1.40
2023-01-05T05:45:11.051Z,1.80
2023-01-05T05:49:13.107Z,1.38
2023-01-05T05:53:15.172Z,1.60
2023-01-05T05:57:17.549Z,1.42
2023-01-05T06:01:19.616Z,1.67
2023-01-05T06:05:21.701Z,1.63
2023-01-05T06:09:24.889Z,1.88
2023-01-05T06:13:27.142Z,1.60
2023-01-05T06:17:29.151Z,1.42
2023-01-05T06:21:31.159Z,1.40
2023-01-05T06:25:33.476Z,1.45
2023-01-05T06:29:35.487Z,1.40
2023-01-05T06:33:37.466Z,1.60
2023-01-05T06:37:39.549Z,1.35
2023-01-05T06:41:41.563Z,1.60
2023-01-05T06:45:44.449Z,1.50
2023-01-05T06:49:46.543Z,1.60
2023-01-05T06:53:48.547Z,1.65
2023-01-05T06:57:53.316Z,1.40
2023-01-05T07:01:59.206Z,1.30
2023-01-05T07:06:01.215Z,1.55
2023-01-05T07:10:04.337Z,2.00
2023-01-05T07:14:06.324Z,1.50
2023-01-05T07:18:08.359Z,2.25
2023-01-05T07:22:10.375Z,1.50
2023-01-05T07:26:12.351Z,1.60
2023-01-05T07:30:14.354Z,1.60
2023-01-05T07:34:16.341Z,1.33
2023-01-05T07:38:18.386Z,1.52
2023-01-05T07:42:20.424Z,2.00
2023-01-05T07:46:24.094Z,1.80
2023-01-05T07:50:26.486Z,1.60
2023-01-05T07:54:28.586Z,1.90
2023-01-05T07:58:31.077Z,1.55
2023-01-05T08:02:36.002Z,1.48
2023-01-05T08:06:38.383Z,1.55
2023-01-05T08:10:42.307Z,1.92
2023-01-05T08:14:44.299Z,1.50
2023-01-05T08:18:46.376Z,1.73
2023-01-05T08:22:52.746Z,2.45
2023-01-05T08:26:54.896Z,2.23
2023-01-05T08:31:08.219Z,4.47
2023-01-05T08:35:10.297Z,2.10
2023-01-05T08:39:12.802Z,2.38
2023-01-05T08:43:14.822Z,2.28
2023-01-05T08:47:18.359Z,1.45
2023-01-05T08:51:21.340Z,1.70
2023-01-05T08:55:23.344Z,1.83
2023-01-05T08:59:25.381Z,2.03
2023-01-05T09:03:27.390Z,1.95
2023-01-05T09:07:29.523Z,1.75
2023-01-05T09:11:31.543Z,2.08
2023-01-05T09:15:35.027Z,1.50
2023-01-05T09:19:37.376Z,1.40
2023-01-05T09:23:40.783Z,2.25
2023-01-05T09:27:42.909Z,2.03
2023-01-05T09:31:45.295Z,1.98
2023-01-05T09:35:56.980Z,2.28
2023-01-05T09:39:59.047Z,1.90
2023-01-05T09:44:05.140Z,2.85
2023-01-05T09:48:14.357Z,2.50
2023-01-05T09:52:21.224Z,2.40
2023-01-05T09:57:07.551Z,2.50
2023-01-05T10:01:16.063Z,3.00
2023-01-05T10:05:19.261Z,2.28
2023-01-05T10:09:28.239Z,1.98
2023-01-05T10:13:33.236Z,1.77
2023-01-05T10:17:41.793Z,1.63
2023-01-05T10:22:14.328Z,1.80
2023-01-05T10:26:45.219Z,2.30
2023-01-05T10:31:06.472Z,2.73
2023-01-05T10:35:59.566Z,1.98
2023-01-05T10:40:06.056Z,1.98
2023-01-05T10:44:38.840Z,1.90
2023-01-05T10:48:40.966Z,1.80
2023-01-05T10:52:45.039Z,1.73
2023-01-05T10:56:47.034Z,2.17
2023-01-05T11:00:50.095Z,2.13
2023-01-05T11:04:53.378Z,2.33
2023-01-05T11:08:55.964Z,2.20
2023-01-05T11:13:04.571Z,2.15
2023-01-05T11:17:11.669Z,2.47
2023-01-05T11:21:19.831Z,1.77
2023-01-05T11:25:33.108Z,2.33
2023-01-05T11:29:35.219Z,3.55
2023-01-05T11:33:39.601Z,2.28
2023-01-05T11:37:44.969Z,2.40
2023-01-05T11:41:47.182Z,1.80
2023-01-05T11:46:02.589Z,2.60
2023-01-05T11:50:13.688Z,2.05
2023-01-05T11:54:31.916Z,2.08
2023-01-05T11:58:48.401Z,2.03
2023-01-05T12:03:14.889Z,1.70
2023-01-05T12:07:32.248Z,2.10
2023-01-05T12:12:13.288Z,2.40
2023-01-05T12:16:24.465Z,2.35
2023-01-05T12:20:37.346Z,2.17
2023-01-05T12:24:48.852Z,2.25
2023-01-05T12:29:50.526Z,2.20
2023-01-05T12:34:20.517Z,1.90
2023-01-05T12:39:09.794Z,2.08
2023-01-05T12:43:27.090Z,2.55
2023-01-05T12:48:13.264Z,1.80
2023-01-05T12:52:34.221Z,2.00
2023-01-05T12:56:50.113Z,1.98
2023-01-05T13:00:57.402Z,2.67
2023-01-05T13:09:20.994Z,1.80
2023-01-05T13:13:34.367Z,1.95
2023-01-05T13:17:41.226Z,2.50
2023-01-05T13:21:46.403Z,1.60
2023-01-05T13:25:56.082Z,1.73
2023-01-05T13:30:00.904Z,1.48
2023-01-05T13:34:20.923Z,1.50
2023-01-05T13:38:55.543Z,1.50
2023-01-05T13:43:16.454Z,2.00
2023-01-05T13:47:28.019Z,1.38
2023-01-05T13:51:39.874Z,1.48
2023-01-05T13:56:02.195Z,1.83
2023-01-05T14:00:12.246Z,1.60
2023-01-05T14:04:26.450Z,2.20
2023-01-05T14:08:37.977Z,2.95
2023-01-05T14:12:46.887Z,1.85
2023-01-05T14:16:49.594Z,1.60
2023-01-05T14:20:53.742Z,1.70
2023-01-05T14:24:57.430Z,1.10
2023-01-05T14:28:59.506Z,1.13
2023-01-05T14:33:06.209Z,1.50
2023-01-05T14:37:22.716Z,2.35
2023-01-05T14:41:27.740Z,1.38
2023-01-05T14:45:32.629Z,1.33
2023-01-05T14:49:39.109Z,9.10
2023-01-05T14:53:44.574Z,2.40
2023-01-05T14:57:55.289Z,2.10
2023-01-05T15:02:13.069Z,2.45
2023-01-05T15:10:29.133Z,2.28
2023-01-05T15:14:52.926Z,1.77
2023-01-05T15:19:04.194Z,2.03
2023-01-05T15:23:24.276Z,2.83
2023-01-05T15:27:45.251Z,2.35
2023-01-05T15:31:55.146Z,1.65
2023-01-05T15:36:02.450Z,1.63
2023-01-05T15:44:33.857Z,2.55
2023-01-05T15:48:45.297Z,3.03
2023-01-05T15:52:59.588Z,2.42
2023-01-05T15:57:02.488Z,2.72
2023-01-05T16:01:16.116Z,2.72
2023-01-05T16:05:21.389Z,3.22
2023-01-05T16:09:38.794Z,3.10
2023-01-05T16:13:45.733Z,3.38
2023-01-05T16:17:50.590Z,2.53
2023-01-05T16:22:12.046Z,3.58
2023-01-05T16:26:17.496Z,4.00
2023-01-05T16:30:39.416Z,3.10
2023-01-05T16:34:41.517Z,2.95
2023-01-05T16:38:43.551Z,2.22
2023-01-05T16:42:50.382Z,3.00
2023-01-05T16:47:05.702Z,2.97
2023-01-05T16:51:09.543Z,4.20
2023-01-05T16:55:31.787Z,4.07
2023-01-05T16:59:39.970Z,8.23
2023-01-05T17:03:43.015Z,3.90
2023-01-05T17:07:46.922Z,3.13
2023-01-05T17:11:49.259Z,2.90
2023-01-05T17:15:53.030Z,3.55
2023-01-05T17:19:55.493Z,4.40
2023-01-05T17:23:59.960Z,3.13
2023-01-05T17:28:02.072Z,3.70
2023-01-05T17:32:04.487Z,4.30
2023-01-05T17:36:07.047Z,4.35
2023-01-05T17:40:16.690Z,3.60
2023-01-05T17:44:18.801Z,3.30
2023-01-05T17:48:20.873Z,2.90
2023-01-05T17:52:23.032Z,3.28
2023-01-05T17:56:26.007Z,2.83
2023-01-05T18:00:33.120Z,2.63
2023-01-05T18:04:35.234Z,2.33
2023-01-05T18:08:38.180Z,3.55
2023-01-05T18:16:46.297Z,4.95
2023-01-05T18:20:51.385Z,2.83
2023-01-05T18:24:53.688Z,2.65
2023-01-05T18:28:55.711Z,5.47
2023-01-05T18:32:58.379Z,6.10
2023-01-05T18:37:05.784Z,5.97
2023-01-05T18:41:09.343Z,11.25
2023-01-05T18:45:19.089Z,8.73
2023-01-05T18:49:21.994Z,7.60
2023-01-05T18:53:24.257Z,3.92
2023-01-05T18:57:26.537Z,4.20
2023-01-05T19:01:28.590Z,3.85
2023-01-05T19:05:30.647Z,2.92
2023-01-05T19:09:32.764Z,3.40
2023-01-05T19:13:34.808Z,4.32
2023-01-05T19:17:36.902Z,5.15
2023-01-05T19:21:41.136Z,3.92
2023-01-05T19:25:43.172Z,3.22
2023-01-05T19:29:45.253Z,3.13
2023-01-05T19:33:47.239Z,2.30
2023-01-05T19:37:49.340Z,2.38
2023-01-05T19:41:51.505Z,1.63
2023-01-05T19:45:58.282Z,2.35
2023-01-05T19:50:00.354Z,1.50
2023-01-05T19:54:04.720Z,2.67
2023-01-05T19:58:06.703Z,5.80
2023-01-05T20:02:10.017Z,1.52
2023-01-05T20:06:16.400Z,1.98
2023-01-05T20:10:18.447Z,2.00
2023-01-05T20:14:21.785Z,0.80
2023-01-05T20:18:23.748Z,1.05
2023-01-05T20:22:25.772Z,1.02
2023-01-05T20:26:30.369Z,1.40
2023-01-05T20:30:34.263Z,1.30
2023-01-05T20:34:38.806Z,0.90
2023-01-05T20:38:40.803Z,1.00
2023-01-05T20:42:42.810Z,0.70
2023-01-05T20:46:47.039Z,0.85
2023-01-05T20:50:49.081Z,0.90
2023-01-05T20:54:52.467Z,0.80
2023-01-05T20:58:54.797Z,0.80
2023-01-05T21:02:56.931Z,1.55
2023-01-05T21:07:01.045Z,0.82
2023-01-05T21:11:04.448Z,1.13
2023-01-05T21:15:07.152Z,1.08
2023-01-05T21:19:11.480Z,2.50
2023-01-05T21:23:13.492Z,1.98
2023-01-05T21:27:15.525Z,1.00
2023-01-05T21:31:20.142Z,1.10
2023-01-05T21:35:22.171Z,0.88
2023-01-05T21:39:28.180Z,0.68
2023-01-05T21:43:32.863Z,1.00
2023-01-05T21:47:35.850Z,0.60
2023-01-05T21:51:57.012Z,0.63
2023-01-05T21:56:18.021Z,0.60
2023-01-05T22:00:20.115Z,0.50
2023-01-05T22:04:22.334Z,1.08
2023-01-05T22:08:24.869Z,1.00
2023-01-05T22:12:26.892Z,0.90
2023-01-05T22:16:29.108Z,1.17
2023-01-05T22:20:31.119Z,1.00
2023-01-05T22:24:33.311Z,1.27
2023-01-05T22:28:36.695Z,0.90
2023-01-05T22:32:38.717Z,1.00
2023-01-05T22:36:40.749Z,0.82
2023-01-05T22:40:42.801Z,0.88
2023-01-05T22:44:44.768Z,1.13
2023-01-05T22:48:48.519Z,1.13
2023-01-05T22:52:50.561Z,1.20
2023-01-05T22:56:52.571Z,1.10
2023-01-05T23:00:54.741Z,0.90
2023-01-05T23:04:56.800Z,1.10
2023-01-05T23:08:59.138Z,1.35
2023-01-05T23:13:01.337Z,2.15
2023-01-05T23:17:03.417Z,1.50
2023-01-05T23:21:08.550Z,1.70
2023-01-05T23:25:11.059Z,1.95
2023-01-05T23:29:13.081Z,1.52
2023-01-05T23:33:16.575Z,1.55
2023-01-05T23:37:18.589Z,1.40
2023-01-05T23:41:20.755Z,1.35
2023-01-05T23:45:22.778Z,1.80
2023-01-05T23:49:24.814Z,2.17
2023-01-05T23:53:26.938Z,2.08
2023-01-05T23:57:30.386Z,2.20
